Time;durP1;ratioP1;P1;durP2;ratioP2;P2;SDS_P1;SDS_P2;PMS_P1;PMS_P2;Temp;Humidity;BMP_temperature;BMP_pressure;BME280_temperature;BME280_humidity;BME280_pressure;Samples;Min_cycle;Max_cycle;Signal;HPM_P1;HPM_P2
2020/12/27 00:02:21;;;;;;;2.95;1.88;;;;;;;20.55;25.09;94442.00;5054490;28;20471;-53
2020/12/27 00:04:48;;;;;;;2.40;1.50;;;;;;;20.60;24.98;94431.13;5054113;28;20052;-53
2020/12/27 00:07:15;;;;;;;3.00;2.03;;;;;;;20.60;25.37;94440.97;5054840;28;20352;-55
2020/12/27 00:09:44;;;;;;;3.17;1.90;;;;;;;20.36;25.53;94446.47;5054747;28;20049;-55
2020/12/27 00:12:12;;;;;;;4.63;1.80;;;;;;;20.18;25.28;94446.06;5054934;28;20040;-57
2020/12/27 00:14:39;;;;;;;3.22;1.80;;;;;;;19.95;25.31;94437.94;5054315;28;20658;-48
2020/12/27 00:17:08;;;;;;;3.20;2.15;;;;;;;20.15;25.92;94444.88;5054785;28;20045;-45
2020/12/27 00:19:36;;;;;;;2.33;1.83;;;;;;;20.00;25.87;94445.66;5054768;28;20044;-48
2020/12/27 00:22:04;;;;;;;3.22;2.28;;;;;;;20.23;25.76;94443.91;5054785;28;20444;-51
2020/12/27 00:24:31;;;;;;;2.58;2.08;;;;;;;20.26;25.70;94437.91;5054228;28;20440;-49
2020/12/27 00:26:59;;;;;;;2.92;1.90;;;;;;;20.38;26.09;94438.94;5054210;28;20364;-46
2020/12/27 00:29:26;;;;;;;3.90;3.00;;;;;;;20.37;25.25;94440.81;5054466;28;20052;-48
2020/12/27 00:31:54;;;;;;;3.45;2.50;;;;;;;20.43;25.27;94430.72;5054501;28;20045;-47
2020/12/27 00:34:23;;;;;;;3.28;2.58;;;;;;;20.41;25.58;94430.31;5053488;28;20060;-46
2020/12/27 00:36:57;;;;;;;3.35;2.60;;;;;;;20.45;25.65;94428.50;5073416;28;20059;-48
2020/12/27 00:39:24;;;;;;;3.17;2.38;;;;;;;20.40;25.54;94426.09;5066245;28;20447;-46
2020/12/27 00:41:52;;;;;;;3.30;2.70;;;;;;;20.50;25.51;94438.84;5054153;28;20125;-50
2020/12/27 00:44:19;;;;;;;4.40;2.50;;;;;;;20.52;25.16;94423.34;5036096;28;20056;-46
2020/12/27 00:46:52;;;;;;;3.15;2.60;;;;;;;20.47;25.40;94435.00;5053780;28;20056;-46
2020/12/27 00:49:19;;;;;;;3.45;2.72;;;;;;;20.54;25.48;94427.19;5036451;28;20451;-44
2020/12/27 00:51:47;;;;;;;3.40;2.70;;;;;;;20.64;25.38;94428.53;5052960;28;20049;-46
2020/12/27 00:54:14;;;;;;;3.20;2.30;;;;;;;20.41;25.46;94427.66;5036004;28;20052;-47
2020/12/27 00:56:46;;;;;;;4.28;2.38;;;;;;;20.55;25.09;94433.25;5053792;28;20055;-48
2020/12/27 00:59:14;;;;;;;3.50;2.47;;;;;;;20.45;25.32;94439.13;5019898;28;20048;-46
2020/12/27 01:01:43;;;;;;;2.83;2.00;;;;;;;20.41;25.50;94432.97;5035284;28;20287;-48
2020/12/27 01:04:30;;;;;;;2.65;2.25;;;;;;;20.27;25.69;94439.44;5049771;28;20064;-46
2020/12/27 01:06:57;;;;;;;2.83;2.35;;;;;;;20.68;25.10;94437.34;5015755;28;20052;-45
2020/12/27 01:09:25;;;;;;;3.88;2.17;;;;;;;20.61;25.96;94432.66;5016211;28;20041;-46
2020/12/27 01:11:53;;;;;;;3.40;2.10;;;;;;;20.26;25.85;94437.91;5016233;28;20483;-46
2020/12/27 01:14:21;;;;;;;4.38;2.13;;;;;;;20.56;25.42;94429.50;5017539;28;20115;-45
2020/12/27 01:16:54;;;;;;;3.72;2.40;;;;;;;20.25;25.28;94420.44;5035863;28;20041;-47
2020/12/27 01:19:25;;;;;;;3.10;1.90;;;;;;;20.38;25.21;94417.69;5036091;28;20049;-49
2020/12/27 01:21:55;;;;;;;2.25;1.85;;;;;;;20.34;25.24;94417.63;5035934;28;20084;-47
2020/12/27 01:24:33;;;;;;;3.05;2.10;;;;;;;20.46;25.44;94420.19;5035427;28;20064;-45
2020/12/27 01:27:00;;;;;;;2.60;2.03;;;;;;;20.43;25.80;94415.56;5035191;28;20057;-46
2020/12/27 01:29:28;;;;;;;2.30;2.08;;;;;;;20.61;25.52;94410.66;5035732;28;20055;-47
2020/12/27 01:32:02;;;;;;;2.38;1.85;;;;;;;20.57;25.71;94420.44;5052675;28;20053;-46
2020/12/27 01:34:41;;;;;;;2.58;2.10;;;;;;;20.59;25.22;94408.34;5035024;28;20057;-47
2020/12/27 01:37:09;;;;;;;2.78;2.08;;;;;;;20.63;25.22;94413.72;5052467;28;20048;-50
2020/12/27 01:39:44;;;;;;;2.72;2.10;;;;;;;20.73;24.83;94410.50;5052327;28;20482;-47
2020/12/27 01:42:12;;;;;;;3.15;2.33;;;;;;;20.60;25.25;94409.88;5053478;28;20631;-48
2020/12/27 01:44:39;;;;;;;2.97;2.10;;;;;;;20.47;25.47;94405.78;5052072;28;20056;-45
2020/12/27 01:47:16;;;;;;;3.85;1.90;;;;;;;20.45;25.52;94401.94;5052286;28;20493;-46
2020/12/27 01:49:45;;;;;;;2.72;2.40;;;;;;;20.61;25.30;94397.38;5052394;28;20056;-48
2020/12/27 01:52:13;;;;;;;2.70;2.08;;;;;;;20.37;25.59;94392.28;5052573;28;20053;-50
2020/12/27 01:55:05;;;;;;;3.63;2.40;;;;;;;20.27;25.89;94386.38;5049248;28;20348;-47
2020/12/27 01:58:09;;;;;;;3.45;2.50;;;;;;;20.31;26.09;94373.97;5035847;28;20049;-48
2020/12/27 02:00:36;;;;;;;2.92;2.63;;;;;;;20.38;25.90;94372.56;5019239;28;20052;-47
2020/12/27 02:03:33;;;;;;;4.03;2.58;;;;;;;20.32;26.10;94372.84;5039781;28;20060;-45
2020/12/27 02:06:07;;;;;;;4.15;2.80;;;;;;;20.31;26.08;94381.94;5060403;28;20050;-47
2020/12/27 02:08:36;;;;;;;3.67;2.72;;;;;;;20.68;25.52;94376.25;5032328;28;20052;-49
2020/12/27 02:11:16;;;;;;;5.10;3.30;;;;;;;20.32;26.37;94374.72;5032254;28;20076;-45
2020/12/27 02:13:48;;;;;;;5.43;4.15;;;;;;;20.68;25.65;94368.28;5034007;28;20057;-46
2020/12/27 02:16:17;;;;;;;6.90;5.05;;;;;;;20.44;26.21;94357.94;5039033;28;20060;-47
2020/12/27 02:19:08;;;;;;;7.40;5.70;;;;;;;20.53;25.88;94345.22;5015913;28;20049;-47
2020/12/27 02:21:36;;;;;;;7.32;5.75;;;;;;;20.51;26.00;94364.16;5039423;28;20053;-52
2020/12/27 02:24:04;;;;;;;9.18;6.22;;;;;;;20.33;26.02;94361.09;5039062;28;20056;-45
2020/12/27 02:26:32;;;;;;;6.15;4.65;;;;;;;20.35;26.06;94360.00;5038697;28;20359;-47
2020/12/27 02:28:59;;;;;;;6.72;4.85;;;;;;;20.47;26.25;94357.22;5038981;28;20053;-45
2020/12/27 02:31:27;;;;;;;6.45;5.10;;;;;;;20.52;26.23;94348.97;5056649;28;20367;-46
2020/12/27 02:34:00;;;;;;;5.65;4.65;;;;;;;20.39;26.48;94356.28;5038877;28;20060;-45
2020/12/27 02:36:30;;;;;;;6.70;4.28;;;;;;;20.41;26.21;94337.38;5067079;28;20054;-49
2020/12/27 02:39:00;;;;;;;6.50;4.43;;;;;;;20.54;26.16;94331.56;5035548;28;20041;-48
2020/12/27 02:41:36;;;;;;;6.85;4.35;;;;;;;20.43;26.35;94343.13;5035455;28;20448;-48
2020/12/27 02:44:19;;;;;;;5.95;4.60;;;;;;;20.48;26.27;94353.44;5035411;28;20053;-45
2020/12/27 02:47:10;;;;;;;6.10;4.65;;;;;;;20.37;26.83;94341.81;5025568;28;20459;-48
2020/12/27 02:50:11;;;;;;;6.72;5.10;;;;;;;20.68;26.08;94330.34;5027364;28;20045;-45
2020/12/27 02:52:40;;;;;;;8.23;6.13;;;;;;;20.49;26.11;94333.75;5035030;28;20060;-47
2020/12/27 02:55:08;;;;;;;6.57;5.10;;;;;;;20.43;26.35;94333.25;5034933;28;20383;-47
2020/12/27 02:57:42;;;;;;;7.88;5.40;;;;;;;20.57;26.23;94330.91;5035247;28;20052;-46
2020/12/27 03:00:09;;;;;;;7.15;5.38;;;;;;;20.54;26.38;94328.16;5035191;28;20472;-47
2020/12/27 03:02:55;;;;;;;6.85;4.32;;;;;;;20.50;26.23;94335.28;5036025;28;20053;-45
2020/12/27 03:05:35;;;;;;;4.18;3.78;;;;;;;20.74;25.90;94332.34;5068079;28;20060;-44
2020/12/27 03:08:03;;;;;;;4.88;3.70;;;;;;;20.66;26.47;94333.34;5070903;28;20052;-47
2020/12/27 03:10:48;;;;;;;5.30;4.28;;;;;;;20.58;26.36;94334.34;5034825;28;20056;-47
2020/12/27 03:13:15;;;;;;;6.13;4.53;;;;;;;20.68;26.37;94336.41;5034685;28;20053;-47
2020/12/27 03:15:44;;;;;;;5.03;4.50;;;;;;;20.65;26.23;94334.47;5045259;28;20061;-45
2020/12/27 03:18:30;;;;;;;5.68;4.85;;;;;;;20.68;26.16;94331.09;5034805;28;20048;-46
2020/12/27 03:21:16;;;;;;;7.32;4.30;;;;;;;20.69;26.40;94332.63;5035951;28;20057;-46
2020/12/27 03:23:44;;;;;;;8.38;5.68;;;;;;;20.62;26.35;94335.16;5034175;28;20444;-45
2020/12/27 03:26:18;;;;;;;6.25;5.38;;;;;;;20.88;25.99;94334.53;5050881;28;20082;-46
2020/12/27 03:28:45;;;;;;;7.10;5.60;;;;;;;20.62;26.41;94327.19;5035753;28;20368;-45
2020/12/27 03:31:13;;;;;;;6.45;5.53;;;;;;;20.83;26.23;94332.91;5034649;28;20057;-45
2020/12/27 03:33:41;;;;;;;7.25;5.70;;;;;;;20.71;26.46;94333.06;5034326;28;20052;-47
2020/12/27 03:36:12;;;;;;;7.53;5.95;;;;;;;20.90;26.26;94335.69;5037612;28;20057;-45
2020/12/27 03:38:53;;;;;;;8.75;6.60;;;;;;;20.61;26.60;94330.97;5017928;28;20056;-46
2020/12/27 03:41:52;;;;;;;7.72;6.50;;;;;;;20.75;26.25;94328.56;4981039;28;20060;-46
2020/12/27 03:44:38;;;;;;;8.20;6.38;;;;;;;20.83;26.41;94326.84;5017658;28;20049;-46
2020/12/27 03:47:24;;;;;;;8.25;7.03;;;;;;;20.70;26.41;94323.56;5015408;28;20054;-46
2020/12/27 03:50:11;;;;;;;8.20;7.40;;;;;;;20.90;26.18;94319.00;4997273;28;20042;-46
2020/12/27 03:52:43;;;;;;;8.07;7.27;;;;;;;20.61;26.54;94315.03;4998233;28;20065;-48
2020/12/27 03:55:21;;;;;;;9.63;8.15;;;;;;;20.46;26.93;94313.97;5002699;28;20053;-46
2020/12/27 03:58:01;;;;;;;8.93;8.02;;;;;;;20.58;26.97;94315.75;5001291;28;20527;-45
2020/12/27 04:00:37;;;;;;;8.95;8.10;;;;;;;20.65;26.83;94309.78;5017480;28;20060;-45
2020/12/27 04:03:17;;;;;;;11.98;10.70;;;;;;;20.76;26.49;94313.41;5017503;28;20049;-48
2020/12/27 04:05:46;;;;;;;11.95;10.63;;;;;;;20.60;26.85;94324.13;5016652;28;20060;-47
2020/12/27 04:08:16;;;;;;;10.95;9.85;;;;;;;20.80;26.71;94320.31;5017334;28;20053;-46
2020/12/27 04:10:46;;;;;;;12.05;10.25;;;;;;;20.87;26.61;94323.13;5017372;28;20061;-45
2020/12/27 04:13:16;;;;;;;10.82;9.77;;;;;;;20.93;26.08;94315.63;5017036;28;20053;-46
2020/12/27 04:15:48;;;;;;;11.27;9.57;;;;;;;21.00;26.44;94321.06;5017060;28;20049;-46
2020/12/27 04:18:20;;;;;;;10.45;9.27;;;;;;;20.86;26.79;94320.81;5017164;28;20037;-46
2020/12/27 04:21:06;;;;;;;11.68;9.98;;;;;;;20.72;26.67;94313.34;5034666;28;20053;-45
2020/12/27 04:23:33;;;;;;;10.52;9.43;;;;;;;20.73;26.90;94300.81;5016869;28;20053;-45
2020/12/27 04:26:01;;;;;;;10.05;8.65;;;;;;;20.66;26.95;94317.41;5016168;28;20053;-45
2020/12/27 04:28:29;;;;;;;10.02;8.70;;;;;;;20.84;26.60;94317.75;5016830;28;20368;-45
2020/12/27 04:30:56;;;;;;;9.88;8.88;;;;;;;20.90;26.48;94317.09;5016263;28;20049;-46
2020/12/27 04:33:36;;;;;;;9.55;8.55;;;;;;;20.75;26.73;94311.88;5016672;28;20045;-47
2020/12/27 04:36:24;;;;;;;9.77;8.88;;;;;;;21.01;26.62;94322.59;5050824;28;20459;-46
2020/12/27 04:38:51;;;;;;;13.18;11.75;;;;;;;20.82;26.77;94312.78;5036796;28;20060;-45
2020/12/27 04:41:19;;;;;;;10.75;9.65;;;;;;;20.53;26.99;94313.34;5036706;28;20368;-46
2020/12/27 04:43:50;;;;;;;10.32;9.23;;;;;;;20.66;26.80;94313.97;5036408;28;20049;-47
2020/12/27 04:46:17;;;;;;;9.32;8.40;;;;;;;20.59;27.02;94306.66;5035276;28;20056;-46
2020/12/27 04:48:58;;;;;;;9.38;8.45;;;;;;;21.03;26.43;94323.00;5036641;28;20068;-47
2020/12/27 04:51:47;;;;;;;10.77;8.88;;;;;;;20.92;26.75;94316.75;5036689;28;20064;-46
2020/12/27 04:54:43;;;;;;;8.63;7.80;;;;;;;20.85;26.79;94325.38;5023527;28;20053;-45
2020/12/27 04:57:25;;;;;;;13.55;8.80;;;;;;;20.75;26.91;94309.97;5021406;28;20048;-48
2020/12/27 04:59:55;;;;;;;9.25;8.35;;;;;;;20.87;26.85;94312.50;5052634;28;20080;-47
2020/12/27 05:02:42;;;;;;;9.88;8.80;;;;;;;20.76;26.97;94311.50;5053549;28;20056;-47
2020/12/27 05:05:13;;;;;;;9.68;8.77;;;;;;;20.75;27.27;94306.56;5060089;28;20053;-45
2020/12/27 05:07:43;;;;;;;9.80;8.80;;;;;;;20.98;26.82;94306.59;5043557;28;20057;-47
2020/12/27 05:10:30;;;;;;;9.90;8.98;;;;;;;20.91;26.98;94315.22;5042833;28;20649;-46
2020/12/27 05:13:03;;;;;;;9.40;8.45;;;;;;;20.81;27.07;94302.47;5036063;28;20052;-46
2020/12/27 05:15:30;;;;;;;11.02;9.10;;;;;;;21.02;26.72;94299.44;5035999;28;20061;-47
2020/12/27 05:18:01;;;;;;;10.82;9.18;;;;;;;20.67;27.29;94303.00;5035950;28;20040;-44
2020/12/27 05:20:34;;;;;;;10.00;9.00;;;;;;;20.96;26.81;94298.97;5035966;28;20041;-47
2020/12/27 05:23:03;;;;;;;10.35;8.93;;;;;;;20.82;27.15;94310.13;5035734;28;20609;-47
2020/12/27 05:25:44;;;;;;;10.32;9.02;;;;;;;21.01;26.82;94311.19;5052586;28;20052;-48
2020/12/27 05:28:20;;;;;;;9.35;8.35;;;;;;;20.93;26.86;94305.75;5020433;28;20468;-46
2020/12/27 05:31:20;;;;;;;11.23;9.25;;;;;;;20.99;26.74;94292.94;5024023;28;20041;-47
2020/12/27 05:34:08;;;;;;;11.10;9.10;;;;;;;20.90;26.97;94301.16;5052225;28;20075;-45
2020/12/27 05:37:05;;;;;;;10.95;9.18;;;;;;;20.99;26.94;94303.59;4983313;28;20050;-46
2020/12/27 05:40:07;;;;;;;10.23;8.93;;;;;;;20.90;26.86;94293.19;5011421;28;20054;-47
2020/12/27 05:42:55;;;;;;;9.85;8.85;;;;;;;21.01;27.14;94289.94;5012541;28;20049;-46
2020/12/27 05:45:22;;;;;;;9.05;7.60;;;;;;;21.04;26.87;94283.91;5015521;28;20072;-46
2020/12/27 05:47:53;;;;;;;8.27;7.47;;;;;;;21.11;26.82;94290.13;5034707;28;20057;-46
2020/12/27 05:50:20;;;;;;;9.32;8.30;;;;;;;21.03;26.92;94288.47;5037339;28;20049;-45
2020/12/27 05:52:49;;;;;;;9.60;7.97;;;;;;;20.98;27.11;94280.03;5037328;28;20050;-46
2020/12/27 05:55:23;;;;;;;10.40;9.05;;;;;;;20.99;27.09;94268.28;5019919;28;20453;-47
2020/12/27 05:57:55;;;;;;;9.90;8.90;;;;;;;21.15;26.72;94274.25;5036390;28;20049;-46
2020/12/27 06:00:29;;;;;;;9.57;8.65;;;;;;;20.97;27.00;94257.22;5036097;28;20060;-46
2020/12/27 06:03:03;;;;;;;9.60;8.60;;;;;;;20.95;27.06;94268.22;5004279;28;20046;-48
2020/12/27 06:05:53;;;;;;;10.70;8.52;;;;;;;21.26;26.76;94277.09;5005391;28;20125;-45
2020/12/27 06:08:27;;;;;;;9.38;8.38;;;;;;;20.92;26.99;94267.03;5035945;28;20053;-47
2020/12/27 06:11:23;;;;;;;9.27;8.13;;;;;;;21.19;26.80;94283.03;5036186;28;20049;-48
2020/12/27 06:14:15;;;;;;;10.35;8.57;;;;;;;21.22;26.80;94277.00;5035892;28;20467;-45
2020/12/27 06:17:15;;;;;;;10.38;9.27;;;;;;;21.07;27.22;94272.56;5036659;28;20471;-47
2020/12/27 06:20:13;;;;;;;9.85;8.85;;;;;;;21.27;26.57;94282.06;5019374;28;20045;-46
2020/12/27 06:22:47;;;;;;;9.77;8.77;;;;;;;21.29;26.76;94290.44;5008561;28;20058;-49
2020/12/27 06:25:33;;;;;;;9.52;8.48;;;;;;;20.96;27.03;94271.63;5022097;28;20366;-48
2020/12/27 06:28:01;;;;;;;8.93;8.02;;;;;;;20.92;27.25;94275.00;5038999;28;20045;-46
2020/12/27 06:30:41;;;;;;;8.32;7.50;;;;;;;20.91;27.25;94283.31;5038940;28;20046;-49
2020/12/27 06:33:41;;;;;;;9.45;7.90;;;;;;;20.81;27.50;94281.22;5014920;28;20058;-46
2020/12/27 06:36:32;;;;;;;9.38;8.05;;;;;;;21.14;26.99;94276.13;5015972;28;20057;-46
2020/12/27 06:39:30;;;;;;;8.82;7.97;;;;;;;20.99;27.16;94277.00;5019307;28;20052;-48
2020/12/27 06:42:20;;;;;;;9.02;8.13;;;;;;;20.91;27.33;94270.81;5018879;28;20045;-46
2020/12/27 06:45:30;;;;;;;10.82;7.85;;;;;;;21.04;27.37;94262.66;5034780;28;20522;-45
2020/12/27 06:48:31;;;;;;;9.07;8.02;;;;;;;20.86;27.73;94265.78;5036154;28;20053;-46
2020/12/27 06:51:41;;;;;;;11.98;9.40;;;;;;;21.16;27.17;94267.81;5035336;28;20060;-46
2020/12/27 06:54:14;;;;;;;11.82;9.23;;;;;;;21.03;27.29;94261.13;5018877;28;20049;-47
2020/12/27 06:56:52;;;;;;;10.95;8.90;;;;;;;21.18;27.17;94258.34;4999101;28;20429;-45
2020/12/27 06:59:48;;;;;;;13.40;9.82;;;;;;;21.34;26.90;94270.75;5002520;28;20056;-48
2020/12/27 07:02:21;;;;;;;10.05;9.05;;;;;;;21.57;26.66;94252.13;4998856;28;20461;-44
2020/12/27 07:04:48;;;;;;;10.02;8.80;;;;;;;21.58;26.91;94243.00;5019258;28;20049;-50
2020/12/27 07:07:15;;;;;;;10.98;8.60;;;;;;;21.55;26.85;94266.53;5035802;28;20060;-49
2020/12/27 07:09:42;;;;;;;9.85;8.63;;;;;;;22.03;26.10;94282.03;5018759;28;20045;-47
2020/12/27 07:12:11;;;;;;;10.00;8.32;;;;;;;21.80;26.42;94266.13;5035953;28;20049;-46
2020/12/27 07:14:39;;;;;;;8.38;7.43;;;;;;;21.82;26.56;94258.56;5017822;28;20045;-47
2020/12/27 07:17:07;;;;;;;9.90;8.02;;;;;;;21.50;26.59;94258.09;5033250;28;20056;-46
2020/12/27 07:19:36;;;;;;;9.00;7.47;;;;;;;21.67;26.55;94252.28;5018234;28;20060;-46
2020/12/27 07:22:10;;;;;;;8.98;7.28;;;;;;;21.84;26.40;94253.66;5035413;28;20053;-46
2020/12/27 07:24:39;;;;;;;8.52;7.50;;;;;;;21.86;26.46;94259.41;5035452;28;20060;-46
2020/12/27 07:27:09;;;;;;;9.30;7.75;;;;;;;21.74;26.45;94252.38;5035165;28;20507;-46
2020/12/27 07:29:36;;;;;;;8.55;7.28;;;;;;;22.28;25.84;94253.88;5035680;28;20064;-45
2020/12/27 07:32:04;;;;;;;8.90;7.07;;;;;;;22.32;25.91;94253.91;5032885;28;20053;-47
2020/12/27 07:34:32;;;;;;;8.88;7.65;;;;;;;21.99;26.42;94258.03;5017752;28;20456;-49
2020/12/27 07:37:03;;;;;;;8.95;7.10;;;;;;;22.07;26.54;94246.38;5027836;28;20053;-48
2020/12/27 07:39:49;;;;;;;7.13;6.43;;;;;;;22.04;26.60;94247.09;5015640;28;20037;-48
2020/12/27 07:42:32;;;;;;;7.88;7.00;;;;;;;22.24;26.39;94249.63;5015420;28;20050;-48
2020/12/27 07:45:13;;;;;;;9.05;7.63;;;;;;;22.58;25.85;94250.41;5015359;28;20045;-46
2020/12/27 07:47:41;;;;;;;8.82;6.85;;;;;;;22.33;26.05;94234.91;5041383;28;20374;-47
2020/12/27 07:50:09;;;;;;;7.55;6.75;;;;;;;22.19;26.31;94233.97;5055163;28;20052;-48
2020/12/27 07:52:43;;;;;;;7.95;7.15;;;;;;;22.28;25.96;94235.22;5035623;28;20041;-49
2020/12/27 07:55:11;;;;;;;7.85;6.40;;;;;;;22.39;25.80;94232.72;5014542;28;20046;-49
2020/12/27 07:57:38;;;;;;;9.38;7.60;;;;;;;22.51;25.51;94240.44;5027575;28;20387;-47
2020/12/27 08:00:08;;;;;;;9.60;7.50;;;;;;;22.65;25.49;94235.28;5017660;28;20440;-50
2020/12/27 08:02:45;;;;;;;8.90;7.53;;;;;;;22.54;25.72;94229.06;5034864;28;20053;-49
2020/12/27 08:05:12;;;;;;;9.52;7.53;;;;;;;22.61;25.79;94233.69;5034455;28;20056;-46
2020/12/27 08:07:40;;;;;;;7.80;6.10;;;;;;;22.64;25.39;94228.41;5034480;28;20352;-47
2020/12/27 08:10:22;;;;;;;8.77;6.13;;;;;;;22.87;24.93;94246.16;5034888;28;20474;-47
2020/12/27 08:12:53;;;;;;;7.35;5.97;;;;;;;23.07;24.66;94244.81;5034531;28;20401;-47
2020/12/27 08:15:20;;;;;;;7.20;5.82;;;;;;;22.96;24.76;94249.28;5034828;28;20060;-48
2020/12/27 08:18:14;;;;;;;6.97;6.00;;;;;;;23.08;24.71;94230.34;5034440;28;20383;-48
2020/12/27 08:20:49;;;;;;;8.13;7.32;;;;;;;23.12;24.92;94225.81;5034212;28;20452;-49
2020/12/27 08:23:17;;;;;;;8.65;7.38;;;;;;;22.73;25.26;94236.88;5034504;28;20048;-51
2020/12/27 08:25:45;;;;;;;9.35;7.90;;;;;;;22.84;24.94;94229.00;5033277;28;20480;-47
2020/12/27 08:28:16;;;;;;;11.00;9.32;;;;;;;22.64;25.66;94216.97;5034152;28;20404;-47
2020/12/27 08:30:45;;;;;;;10.63;8.75;;;;;;;22.42;25.79;94216.75;5033995;28;20045;-48
2020/12/27 08:33:17;;;;;;;10.50;9.40;;;;;;;22.84;25.31;94231.66;5033679;28;20049;-46
2020/12/27 08:35:49;;;;;;;12.63;10.82;;;;;;;22.72;25.26;94230.00;5033912;28;20053;-48
2020/12/27 08:38:50;;;;;;;12.77;10.30;;;;;;;22.65;25.56;94223.84;5034190;28;20045;-49
2020/12/27 08:41:27;;;;;;;12.75;11.40;;;;;;;23.15;24.95;94225.06;5016637;28;20053;-46
2020/12/27 08:44:00;;;;;;;14.85;12.05;;;;;;;22.75;25.15;94221.28;5015915;28;20053;-47
2020/12/27 08:46:49;;;;;;;12.85;11.23;;;;;;;22.85;25.57;94216.44;5016160;28;20487;-45
2020/12/27 08:49:31;;;;;;;13.13;11.20;;;;;;;22.80;25.68;94214.06;5033978;28;20049;-48
2020/12/27 08:52:14;;;;;;;13.18;10.77;;;;;;;22.85;25.78;94200.44;5033949;28;20053;-47
2020/12/27 08:54:41;;;;;;;11.90;10.48;;;;;;;22.78;25.81;94215.22;5013124;28;20495;-48
2020/12/27 08:57:11;;;;;;;12.05;10.38;;;;;;;23.14;25.33;94210.22;5019851;28;20049;-47
2020/12/27 08:59:38;;;;;;;12.15;9.90;;;;;;;22.82;25.84;94206.50;5016679;28;20057;-49
2020/12/27 09:02:09;;;;;;;11.60;10.02;;;;;;;22.92;25.98;94203.19;5033862;28;20079;-47
2020/12/27 09:04:36;;;;;;;12.18;9.98;;;;;;;23.26;25.82;94212.59;5032500;28;20057;-46
2020/12/27 09:07:04;;;;;;;12.43;10.88;;;;;;;23.56;25.27;94222.34;5033787;28;20052;-47
2020/12/27 09:09:31;;;;;;;13.07;10.23;;;;;;;23.45;25.13;94218.84;5033824;28;20049;-48
2020/12/27 09:11:58;;;;;;;12.30;9.93;;;;;;;23.49;25.46;94216.94;5033923;28;20053;-49
2020/12/27 09:14:32;;;;;;;12.55;10.98;;;;;;;23.25;25.82;94213.75;5033310;28;20060;-48
2020/12/27 09:17:04;;;;;;;11.02;9.43;;;;;;;22.38;26.80;94210.63;5046373;28;20055;-44
2020/12/27 09:19:34;;;;;;;13.50;9.82;;;;;;;22.84;26.52;94196.25;5053724;28;20382;-46
2020/12/27 09:22:03;;;;;;;8.00;7.07;;;;;;;22.81;26.64;94199.63;5053243;28;20049;-47
2020/12/27 09:24:31;;;;;;;9.48;7.32;;;;;;;22.69;26.50;94188.09;5051238;28;20049;-47
2020/12/27 09:27:11;;;;;;;8.40;6.90;;;;;;;22.70;26.97;94178.22;5033356;28;20371;-47
2020/12/27 09:29:39;;;;;;;6.00;4.95;;;;;;;22.59;27.23;94161.34;5033525;28;20054;-46
2020/12/27 09:32:13;;;;;;;6.13;4.80;;;;;;;22.92;26.63;94160.53;5033603;28;20049;-46
2020/12/27 09:34:41;;;;;;;5.20;4.00;;;;;;;22.93;26.51;94148.75;5033580;28;20387;-47
2020/12/27 09:37:17;;;;;;;4.72;4.22;;;;;;;21.76;28.20;94142.94;5053387;28;20045;-45
2020/12/27 09:39:53;;;;;;;3.67;3.20;;;;;;;22.28;27.69;94127.97;5045381;28;20041;-47
2020/12/27 09:42:22;;;;;;;3.63;2.67;;;;;;;21.60;28.32;94134.38;5070104;28;20055;-46
2020/12/27 09:44:49;;;;;;;3.35;2.28;;;;;;;21.89;28.10;94115.00;5073392;28;20076;-48
2020/12/27 09:47:27;;;;;;;3.28;2.35;;;;;;;22.37;27.18;94123.09;5046049;28;20045;-45
2020/12/27 09:50:04;;;;;;;4.25;3.03;;;;;;;22.38;27.37;94124.63;5033270;28;20329;-45
2020/12/27 09:52:32;;;;;;;4.07;2.70;;;;;;;22.21;27.46;94104.69;5040832;28;20057;-45
2020/12/27 09:55:01;;;;;;;2.72;2.40;;;;;;;22.61;26.85;94100.47;5032393;28;20045;-46
2020/12/27 09:57:28;;;;;;;3.08;2.45;;;;;;;23.25;26.19;94101.75;5033736;28;20352;-45
2020/12/27 09:59:55;;;;;;;2.35;1.83;;;;;;;23.41;25.45;94117.44;5033700;28;20084;-45
2020/12/27 10:02:22;;;;;;;3.13;1.85;;;;;;;23.57;24.97;94117.16;5066381;28;20056;-46
2020/12/27 10:04:49;;;;;;;2.92;2.10;;;;;;;23.44;25.45;94115.94;5064088;28;20065;-45
2020/12/27 10:07:17;;;;;;;2.50;2.03;;;;;;;23.74;25.01;94095.16;5033324;28;20053;-46
2020/12/27 10:09:44;;;;;;;2.45;1.90;;;;;;;23.80;25.04;94090.97;5033262;28;20440;-46
2020/12/27 10:12:11;;;;;;;2.00;1.58;;;;;;;23.72;24.84;94110.78;5055362;28;20467;-45
2020/12/27 10:14:38;;;;;;;2.63;1.98;;;;;;;22.94;25.84;94118.28;5053066;28;20064;-46
2020/12/27 10:17:06;;;;;;;2.80;2.10;;;;;;;22.67;26.44;94089.13;5053030;28;20542;-45
2020/12/27 10:19:33;;;;;;;2.65;2.05;;;;;;;23.88;24.98;94083.75;5037570;28;20045;-46
2020/12/27 10:22:03;;;;;;;3.08;2.13;;;;;;;24.43;24.08;94076.25;5055551;28;20040;-46
2020/12/27 10:24:33;;;;;;;3.10;1.90;;;;;;;24.88;23.45;94092.66;5073074;28;20055;-45
2020/12/27 10:27:02;;;;;;;2.60;2.03;;;;;;;25.03;23.28;94086.22;5034109;28;20053;-45
2020/12/27 10:29:29;;;;;;;3.10;2.15;;;;;;;24.39;23.82;94085.41;5032903;28;20049;-44
2020/12/27 10:32:06;;;;;;;3.80;2.05;;;;;;;24.99;23.23;94080.09;5034951;28;20517;-44
2020/12/27 10:34:34;;;;;;;4.07;2.70;;;;;;;24.69;23.90;94066.31;5071149;28;20506;-45
2020/12/27 10:37:03;;;;;;;4.25;3.70;;;;;;;24.26;24.49;94067.06;5056514;28;20395;-47
2020/12/27 10:39:30;;;;;;;6.30;4.65;;;;;;;24.07;24.79;94058.63;5059728;28;20045;-51
2020/12/27 10:41:58;;;;;;;4.00;3.30;;;;;;;24.22;24.55;94049.50;5062094;28;20048;-46
2020/12/27 10:44:26;;;;;;;5.05;3.08;;;;;;;23.69;25.19;94050.16;5075918;28;20052;-49
2020/12/27 10:46:53;;;;;;;3.35;2.60;;;;;;;23.69;24.69;94018.13;5036346;28;20049;-46
2020/12/27 10:49:22;;;;;;;3.53;2.40;;;;;;;24.28;24.13;94021.28;5036214;28;20053;-48
2020/12/27 10:51:50;;;;;;;3.45;2.55;;;;;;;23.66;24.88;94016.94;5036156;28;20050;-47
2020/12/27 10:54:17;;;;;;;2.75;2.40;;;;;;;24.08;24.38;94023.53;5054887;28;20060;-49
2020/12/27 10:56:45;;;;;;;3.03;2.53;;;;;;;24.65;24.05;94020.13;5056260;28;20052;-45
2020/12/27 10:59:14;;;;;;;3.20;2.70;;;;;;;24.79;23.75;94007.53;5055322;28;20049;-47
2020/12/27 11:01:48;;;;;;;3.33;2.78;;;;;;;25.36;23.15;94012.75;5058422;28;20049;-48
2020/12/27 11:04:16;;;;;;;3.75;2.70;;;;;;;25.79;22.08;94012.59;5073945;28;20056;-46
2020/12/27 11:06:43;;;;;;;3.05;2.50;;;;;;;25.62;22.32;93997.34;5055840;28;20056;-48
2020/12/27 11:09:10;;;;;;;3.28;2.22;;;;;;;24.80;23.23;93976.97;5038314;28;20045;-53
2020/12/27 11:11:38;;;;;;;4.35;3.13;;;;;;;24.74;23.72;93967.06;5035806;28;20049;-51
2020/12/27 11:14:06;;;;;;;3.30;2.28;;;;;;;25.03;23.06;93963.19;5055334;28;20079;-49
2020/12/27 11:16:34;;;;;;;4.07;2.40;;;;;;;25.13;22.55;93967.75;5055490;28;20060;-49
2020/12/27 11:19:01;;;;;;;2.30;1.90;;;;;;;25.39;22.53;93953.09;5053734;28;20467;-52
2020/12/27 11:21:29;;;;;;;2.45;1.70;;;;;;;24.18;23.96;93955.25;5055198;28;20045;-52
2020/12/27 11:23:56;;;;;;;3.15;1.88;;;;;;;23.93;24.47;93963.25;5058959;28;20049;-49
2020/12/27 11:26:23;;;;;;;2.58;1.75;;;;;;;23.58;24.95;93947.94;5044054;28;20064;-54
2020/12/27 11:28:50;;;;;;;3.40;1.88;;;;;;;23.35;25.14;93940.25;5054500;28;20045;-52
2020/12/27 11:31:18;;;;;;;2.25;1.60;;;;;;;22.86;25.95;93935.47;5054085;28;20447;-55
2020/12/27 11:33:47;;;;;;;2.58;1.83;;;;;;;22.87;25.95;93929.00;5050019;28;20048;-53
2020/12/27 11:36:15;;;;;;;1.95;1.50;;;;;;;22.87;25.80;93899.69;5050650;28;20594;-49
2020/12/27 11:38:42;;;;;;;2.65;1.60;;;;;;;22.85;25.87;93891.31;5053552;28;20051;-53
2020/12/27 11:41:12;;;;;;;2.20;1.80;;;;;;;22.68;26.42;93920.16;5052031;28;20461;-51
2020/12/27 11:43:40;;;;;;;4.32;2.00;;;;;;;22.99;25.87;93907.38;5054039;28;20053;-51
2020/12/27 11:46:07;;;;;;;2.60;2.00;;;;;;;23.02;26.15;93891.38;5053825;28;20048;-54
2020/12/27 11:48:34;;;;;;;3.28;2.20;;;;;;;23.48;25.28;93900.66;5049602;28;20049;-49
2020/12/27 11:51:01;;;;;;;2.85;1.90;;;;;;;23.08;25.80;93889.13;5038611;28;20052;-50
2020/12/27 11:53:28;;;;;;;4.28;2.22;;;;;;;22.71;26.41;93876.78;5054883;28;20469;-49
2020/12/27 11:55:55;;;;;;;4.43;2.28;;;;;;;22.77;26.13;93864.63;5040581;28;20392;-50
2020/12/27 11:58:22;;;;;;;2.70;2.03;;;;;;;22.27;26.94;93852.19;5034930;28;20049;-51
2020/12/27 12:00:49;;;;;;;3.63;1.90;;;;;;;22.74;25.70;93859.28;5051546;28;20053;-50
2020/12/27 12:03:17;;;;;;;3.75;2.00;;;;;;;22.52;26.53;93855.75;5053374;28;20686;-51